Latest Weather Observations for Bundaberg

IDQ60801

Issued at 8:05 pm EST Monday 22 September 2014 (issued every 30 minutes, with the page automatically refreshed every 10 minutes)

About weather observations | Map of weather stations | Latest weather observations for QLD | Other Formats
Station Details ID: 039128 Name: BUNDABERG AERO Lat: -24.91 Lon: 152.32 Height: 30.82 m
Data from the previous 72 hours. | See also: Recent months at Bundaberg
Date/Time
EST
Temp
°C
App
Temp
°C
Dew
Point
Rel
Hum
%
Delta-T
°C
Wind Press
QNH
hPa
Press
MSL
hPa
Rain
since 9 am
mm
Dir
 
Spd
km/h
Gust
km/h
Spd
kts
Gust
kts
22/08:00pm 19.7 14.2 11.7 60 4.4 ESE 32 39 17 21 1024.8 1024.7 0.0
22/07:30pm 19.8 14.8 11.0 57 4.8 ESE 28 41 15 22 1025.0 1024.9 0.0
22/07:00pm 20.1 14.3 10.8 55 5.0 ESE 32 41 17 22 1024.6 1024.5 0.0
22/06:30pm 20.0 14.2 10.7 55 5.1 ESE 32 43 17 23 1024.2 1024.1 0.0
22/06:00pm 20.0 14.4 11.5 58 4.7 ESE 32 43 17 23 1023.9 1023.8 0.0
22/05:30pm 19.5 15.7 13.7 69 3.3 SE 26 35 14 19 1023.3 1023.2 0.0
22/05:00pm 19.3 13.8 13.7 70 3.2 SE 35 46 19 25 1023.0 1022.9 0.0
22/04:31pm 20.6 14.4 12.6 60 4.5 ESE 37 56 20 30 1022.7 1022.6 0.0
22/04:30pm 20.6 13.9 12.3 59 4.7 ESE 39 56 21 30 1022.6 1022.5 0.0
22/04:28pm 20.6 14.3 12.3 59 4.7 ESE 37 56 20 30 1022.7 1022.6 0.0
22/04:00pm 21.0 15.4 13.2 61 4.4 ESE 35 48 19 26 1022.5 1022.4 0.0
22/03:30pm 21.5 16.2 13.2 59 4.8 ESE 33 46 18 25 1022.3 1022.2 0.0
22/03:00pm 21.4 14.8 12.5 57 5.0 ESE 39 52 21 28 1022.4 1022.3 0.0
22/02:30pm 21.8 15.8 13.4 59 4.8 ESE 37 46 20 25 1022.6 1022.5 0.0
22/02:00pm 22.1 16.1 12.1 53 5.6 ESE 35 50 19 27 1022.7 1022.6 0.0
22/01:30pm 21.7 15.2 11.7 53 5.6 ESE 37 48 20 26 1023.0 1022.9 0.0
22/01:00pm 22.3 16.1 11.4 50 6.1 ESE 35 46 19 25 1022.7 1022.6 0.0
22/12:30pm 22.0 15.6 10.8 49 6.2 ESE 35 46 19 25 1023.4 1023.3 0.0
22/12:00pm 21.9 15.0 10.4 48 6.3 ESE 37 48 20 26 1023.6 1023.5 0.0
22/11:30am 22.8 15.3 10.9 47 6.6 ESE 41 50 22 27 1023.9 1023.8 0.0
22/11:00am 22.2 14.5 10.0 46 6.6 ESE 41 54 22 29 1024.2 1024.1 0.0
22/10:37am 22.3 15.5 10.5 47 6.5 ESE 37 56 20 30 1024.4 1024.3 0.0
22/10:30am 22.4 14.4 10.5 47 6.5 ESE 43 56 23 30 1024.3 1024.2 0.0
22/10:00am 23.5 17.9 12.2 49 6.4 ESE 33 46 18 25 1024.3 1024.2 0.0
22/09:30am 21.9 15.8 11.6 52 5.8 ESE 35 46 19 25 1024.6 1024.5 0.0
22/09:00am 20.6 14.2 12.1 58 4.7 ESE 37 48 20 26 1024.7 1024.6 1.6
22/08:30am 20.5 15.9 13.5 64 4.0 ESE 30 43 16 23 1024.6 1024.5 1.6
22/08:00am 19.9 15.1 14.7 72 3.0 ESE 33 46 18 25 1024.2 1024.1 1.6
22/07:30am 19.5 16.2 13.9 70 3.2 SE 24 39 13 21 1024.3 1024.2 1.6
22/07:00am 17.1 15.4 13.6 80 2.0 SSE 15 22 8 12 1023.7 1023.6 1.6
22/06:30am 16.5 15.1 13.4 82 1.7 SSE 13 19 7 10 1023.4 1023.3 1.6
22/06:00am 16.1 14.8 13.6 85 1.4 SSE 13 19 7 10 1023.1 1023.0 1.6
22/05:30am 16.0 14.3 13.7 86 1.3 S 15 19 8 10 1022.9 1022.8 1.6
22/05:00am 16.0 14.6 13.5 85 1.4 SSE 13 19 7 10 1022.9 1022.8 1.6
22/04:30am 16.1 14.4 13.6 85 1.4 SSE 15 22 8 12 1022.5 1022.4 1.6
22/04:00am 16.2 14.1 13.7 85 1.4 SSE 17 24 9 13 1022.5 1022.4 1.6
22/03:30am 16.1 14.0 13.6 85 1.4 SSE 17 24 9 13 1022.6 1022.5 1.6
22/03:00am 16.4 14.3 13.7 84 1.5 SSE 17 24 9 13 1022.7 1022.6 1.6
22/02:30am 16.0 14.4 13.8 87 1.2 SSE 15 19 8 10 1022.8 1022.7 1.6
22/02:00am 16.1 14.5 13.8 86 1.3 S 15 22 8 12 1023.4 1023.3 1.6
22/01:30am 16.0 14.7 13.8 87 1.2 S 13 19 7 10 1023.6 1023.5 1.6
22/01:00am 16.2 15.0 13.9 86 1.3 S 13 17 7 9 1024.1 1024.0 1.6
22/12:30am 16.5 15.8 14.2 86 1.3 S 11 15 6 8 1024.2 1024.1 1.6
22/12:00am 16.6 15.4 13.9 84 1.5 SE 13 15 7 8 1024.5 1024.4 1.6
 
Date/Time
EST
Temp
°C
App
Temp
°C
Dew
Point
Rel
Hum
%
Delta-T
°C
Wind Press
QNH
hPa
Press
MSL
hPa
Rain
since 9 am
mm
Dir
 
Spd
km/h
Gust
km/h
Spd
kts
Gust
kts
21/11:30pm 16.7 15.4 13.6 82 1.7 S 13 19 7 10 1024.8 1024.7 1.2
21/11:00pm 16.9 16.0 13.8 82 1.7 S 11 15 6 8 1024.8 1024.7 1.2
21/10:30pm 16.9 16.1 14.0 83 1.7 SSE 11 15 6 8 1024.9 1024.8 1.0
21/10:00pm 17.0 16.1 13.7 81 1.9 S 11 17 6 9 1025.0 1024.9 1.0
21/09:30pm 17.5 17.2 13.4 77 2.3 SSW 7 9 4 5 1025.0 1024.9 0.2
21/09:00pm 18.0 17.4 13.5 75 2.5 SSE 9 13 5 7 1024.9 1024.8 0.2
21/08:30pm 18.0 17.0 13.5 75 2.6 ESE 11 15 6 8 1024.9 1024.8 0.2
21/08:00pm 18.4 16.7 13.7 74 2.7 SE 15 19 8 10 1024.7 1024.6 0.2
21/07:30pm 18.5 16.4 13.6 73 2.8 SE 17 20 9 11 1024.5 1024.4 0.2
21/07:00pm 18.5 16.5 13.8 74 2.7 SE 17 26 9 14 1024.2 1024.1 0.2
21/06:30pm 19.2 16.5 13.6 70 3.2 ESE 20 26 11 14 1023.8 1023.7 0.0
21/06:00pm 20.0 17.0 12.5 62 4.2 E 20 26 11 14 1023.4 1023.3 0.0
21/05:30pm 20.3 16.7 12.0 59 4.6 ESE 22 30 12 16 1023.1 1023.0 0.0
21/05:00pm 20.5 16.3 12.5 60 4.5 ESE 26 33 14 18 1022.6 1022.5 0.0
21/04:30pm 21.0 16.7 12.2 57 4.9 ESE 26 33 14 18 1022.4 1022.3 0.0
21/04:00pm 21.2 16.7 11.5 54 5.4 ESE 26 35 14 19 1022.2 1022.1 0.0
21/03:30pm 21.1 16.5 11.2 53 5.5 ESE 26 37 14 20 1022.2 1022.1 0.0
21/03:00pm 22.1 16.6 10.6 48 6.3 E 30 39 16 21 1021.9 1021.8 0.0
21/02:30pm 23.0 16.8 10.1 44 7.1 E 33 48 18 26 1021.8 1021.7 0.0
21/02:00pm 23.1 17.4 11.2 47 6.6 ESE 32 46 17 25 1021.9 1021.8 0.0
21/01:30pm 23.3 17.7 11.4 47 6.7 E 32 44 17 24 1022.3 1022.2 0.0
21/01:00pm 23.8 18.4 12.8 50 6.3 E 33 46 18 25 1022.4 1022.3 0.0
21/12:30pm 23.2 17.7 12.5 51 6.1 E 33 44 18 24 1022.9 1022.8 0.0
21/12:00pm 23.0 17.5 12.6 52 5.9 E 33 41 18 22 1023.3 1023.2 0.0
21/11:30am 23.1 17.6 11.8 49 6.4 ESE 32 43 17 23 1023.5 1023.4 0.0
21/11:00am 22.6 17.7 12.5 53 5.7 ESE 30 43 16 23 1023.8 1023.7 0.0
21/10:30am 22.4 17.1 12.4 53 5.7 E 32 41 17 22 1023.8 1023.7 0.0
21/10:00am 21.4 18.2 14.3 64 4.1 ESE 24 33 13 18 1024.1 1024.0 0.0
21/09:30am 20.1 17.3 14.2 69 3.4 ESE 22 28 12 15 1024.5 1024.4 0.0
21/09:00am 19.9 16.8 14.5 71 3.1 SE 24 30 13 16 1024.9 1024.8 0.0
21/08:30am 19.9 16.7 14.3 70 3.2 SE 24 32 13 17 1024.6 1024.5 0.0
21/08:00am 19.5 17.2 14.1 71 3.1 SSE 19 26 10 14 1024.1 1024.0 0.0
21/07:30am 17.6 15.0 13.7 78 2.2 SSE 20 26 11 14 1024.0 1023.9 0.0
21/07:00am 17.2 16.3 14.8 86 1.4 SSE 13 19 7 10 1024.0 1023.9 0.0
21/06:30am 16.5 15.6 14.9 90 0.9 S 13 20 7 11 1023.6 1023.5 0.0
21/06:00am 16.2 15.2 14.6 90 0.9 SSE 13 19 7 10 1023.2 1023.1 0.0
21/05:30am 16.0 14.7 14.7 92 0.7 SSE 15 20 8 11 1022.8 1022.7 0.0
21/05:00am 16.1 15.2 14.8 92 0.7 SSE 13 19 7 10 1022.7 1022.6 0.0
21/04:30am 16.3 15.5 15.0 92 0.8 SSE 13 15 7 8 1022.4 1022.3 0.0
21/04:00am 16.6 15.2 15.6 94 0.6 SE 17 22 9 12 1022.1 1022.0 0.0
21/03:30am 16.8 14.4 15.3 91 0.9 SE 22 30 12 16 1021.7 1021.6 0.0
21/03:00am 16.8 15.2 15.0 89 1.0 SSE 17 22 9 12 1021.6 1021.5 0.0
21/02:30am 17.2 15.9 14.8 86 1.4 SSE 15 22 8 12 1021.6 1021.5 0.0
21/02:00am 17.1 16.2 14.9 87 1.3 SSE 13 17 7 9 1022.1 1022.0 0.0
21/01:30am 17.1 16.2 14.9 87 1.3 SSE 13 19 7 10 1022.2 1022.1 0.0
21/01:00am 17.2 16.6 14.7 85 1.4 SSE 11 17 6 9 1022.3 1022.2 0.0
21/12:30am 17.6 16.6 14.7 83 1.7 SSE 13 17 7 9 1022.3 1022.2 0.0
21/12:00am 18.0 17.4 14.7 81 1.9 SSE 11 15 6 8 1022.5 1022.4 0.0
 
Date/Time
EST
Temp
°C
App
Temp
°C
Dew
Point
Rel
Hum
%
Delta-T
°C
Wind Press
QNH
hPa
Press
MSL
hPa
Rain
since 9 am
mm
Dir
 
Spd
km/h
Gust
km/h
Spd
kts
Gust
kts
20/11:30pm 18.4 17.4 14.7 79 2.1 SSE 13 19 7 10 1022.7 1022.6 0.0
20/11:00pm 18.7 19.0 15.0 79 2.2 SSW 7 9 4 5 1022.7 1022.6 0.0
20/10:30pm 19.3 19.7 15.2 77 2.4 SSE 7 9 4 5 1022.4 1022.3 0.0
20/10:00pm 19.1 18.9 14.6 75 2.6 SE 9 11 5 6 1022.1 1022.0 0.0
20/09:30pm 19.1 18.3 14.1 73 2.9 ESE 11 13 6 7 1021.8 1021.7 0.0
20/09:00pm 19.1 18.3 14.1 73 2.9 E 11 15 6 8 1021.6 1021.5 0.0
20/08:30pm 19.0 18.2 14.1 73 2.8 E 11 13 6 7 1021.4 1021.3 0.0
20/08:00pm 19.3 18.8 13.9 71 3.1 E 9 13 5 7 1020.9 1020.8 0.0
20/07:30pm 19.2 18.1 13.2 68 3.4 E 11 13 6 7 1020.5 1020.4 0.0
20/07:00pm 20.6 19.7 13.6 64 4.0 NE 11 17 6 9 1020.0 1019.9 0.0
20/06:30pm 20.9 19.2 13.6 63 4.2 NNE 15 20 8 11 1019.3 1019.2 0.0
20/06:00pm 21.0 18.8 13.4 62 4.4 NE 17 20 9 11 1018.8 1018.7 0.0
20/05:30pm 21.3 18.6 13.5 61 4.5 NNE 20 24 11 13 1018.3 1018.2 0.0
20/05:00pm 21.8 18.7 13.4 59 4.8 NE 22 28 12 15 1017.8 1017.7 0.0
20/04:30pm 22.1 18.5 13.2 57 5.1 NNE 24 32 13 17 1017.5 1017.4 0.0
20/04:00pm 23.0 19.2 12.3 51 6.1 NNE 24 30 13 16 1017.2 1017.1 0.0
20/03:30pm 23.8 20.0 12.4 48 6.5 NNE 24 32 13 17 1017.1 1017.0 0.0
20/03:00pm 24.8 20.6 12.4 46 7.1 NNE 26 35 14 19 1017.1 1017.0 0.0
20/02:30pm 24.9 20.7 11.1 42 7.8 NE 24 37 13 20 1017.3 1017.2 0.0
20/02:00pm 25.0 20.3 10.8 41 7.9 NNE 26 33 14 18 1017.3 1017.2 0.0
20/01:30pm 24.2 18.7 7.4 34 8.8 NE 26 32 14 17 1017.8 1017.7 0.0
20/01:00pm 25.5 20.9 8.1 33 9.3 NNE 22 32 12 17 1018.0 1017.9 0.0
20/12:30pm 26.1 21.6 11.4 39 8.4 NNE 26 32 14 17 1018.3 1018.2 0.0
20/12:00pm 25.5 22.3 10.1 38 8.5 N 17 24 9 13 1018.8 1018.7 0.0
20/11:30am 25.1 22.5 10.6 40 8.1 N 15 24 8 13 1019.3 1019.2 0.0
20/11:00am 25.2 21.6 9.9 38 8.4 N 19 24 10 13 1019.6 1019.5 0.0
20/10:30am 24.6 21.4 10.1 40 8.0 NNE 17 26 9 14 1020.0 1019.9 0.0
20/10:00am 24.9 21.8 10.4 40 8.0 N 17 28 9 15 1020.4 1020.3 0.0
20/09:30am 23.5 21.4 11.2 46 6.9 N 13 20 7 11 1020.7 1020.6 0.0
20/09:00am 23.3 21.3 11.4 47 6.7 NNE 13 20 7 11 1020.8 1020.7 0.0
20/08:30am 22.1 21.9 13.5 58 5.0 N 7 11 4 6 1020.7 1020.6 0.0
20/08:00am 19.6 20.6 14.2 71 3.1 SW 2 9 1 5 1020.5 1020.4 0.0
20/07:30am 17.2 17.4 14.3 83 1.7 S 6 7 3 4 1020.3 1020.2 0.0
20/07:00am 14.6 15.6 13.1 91 0.8 CALM 0 0 0 0 1020.1 1020.0 0.0
20/06:30am 12.9 12.2 12.0 94 0.5 SSW 7 9 4 5 1019.7 1019.6 0.0
20/06:00am 12.2 12.6 11.3 94 0.5 CALM 0 0 0 0 1019.2 1019.1 0.0
20/05:30am 11.8 12.0 10.7 93 0.6 CALM 0 0 0 0 1018.8 1018.7 0.0
20/05:00am 11.7 11.8 10.1 90 0.8 CALM 0 0 0 0 1018.4 1018.3 0.0
20/04:30am 12.4 12.8 11.1 92 0.7 CALM 0 0 0 0 1018.2 1018.1 0.0
20/04:00am 13.2 12.5 11.9 92 0.7 S 7 9 4 5 1018.0 1017.9 0.0
20/03:30am 13.1 12.0 11.8 92 0.7 S 9 11 5 6 1017.9 1017.8 0.0
20/03:00am 12.9 11.7 11.6 92 0.7 S 9 11 5 6 1017.8 1017.7 0.0
20/02:30am 13.0 12.1 11.4 90 0.8 SE 7 9 4 5 1017.8 1017.7 0.0
20/02:00am 13.1 11.9 11.7 91 0.7 SSE 9 11 5 6 1018.1 1018.0 0.0
20/01:30am 12.9 11.9 11.1 89 0.9 SSE 7 9 4 5 1018.4 1018.3 0.0
20/01:00am 13.9 12.0 11.9 88 1.1 S 13 15 7 8 1018.7 1018.6 0.0
20/12:30am 13.9 11.6 11.8 87 1.1 S 15 20 8 11 1018.9 1018.8 0.0
20/12:00am 14.2 14.7 11.5 84 1.4 CALM 0 0 0 0 1018.9 1018.8 0.0
 
Date/Time
EST
Temp
°C
App
Temp
°C
Dew
Point
Rel
Hum
%
Delta-T
°C
Wind Press
QNH
hPa
Press
MSL
hPa
Rain
since 9 am
mm
Dir
 
Spd
km/h
Gust
km/h
Spd
kts
Gust
kts
19/11:30pm 14.8 15.4 11.9 83 1.6 CALM 0 0 0 0 1019.0 1018.9 0.0
19/11:00pm 15.0 15.6 11.8 81 1.7 CALM 0 0 0 0 1019.1 1019.0 0.0
19/10:30pm 15.7 16.5 12.5 81 1.8 CALM 0 0 0 0 1019.2 1019.1 0.0
19/10:00pm 15.4 15.9 11.6 78 2.0 CALM 0 0 0 0 1019.2 1019.1 0.0
19/09:30pm 16.3 16.9 11.9 75 2.4 CALM 0 0 0 0 1019.4 1019.3 0.0
19/09:00pm 16.8 16.1 12.1 74 2.6 N 7 11 4 6 1019.3 1019.2 0.0
19/08:30pm 17.8 17.0 11.8 68 3.3 NNE 7 7 4 4 1019.1 1019.0 0.0

Other Formats:

Comma delimited format used in spreadsheet applications
http://www.bom.gov.au/fwo/IDQ60801/IDQ60801.94387.axf

JavaScript Object Notation format (JSON) in row-major order
http://www.bom.gov.au/fwo/IDQ60801/IDQ60801.94387.json